Time;durP1;ratioP1;P1;durP2;ratioP2;P2;SDS_P1;SDS_P2;PMS_P1;PMS_P2;Temp;Humidity;BMP_temperature;BMP_pressure;BME280_temperature;BME280_humidity;BME280_pressure;Samples;Min_cycle;Max_cycle;Signal;HPM_P1;HPM_P2
2022/04/20 00:00:15;;;;;;;;;;;7.00;99.90;;;;;;5053472;28;19962;-67
2022/04/20 00:02:41;;;;;;;;;;;6.90;99.90;;;;;;5053233;28;19913;-68
2022/04/20 00:05:07;;;;;;;;;;;6.90;99.90;;;;;;5053791;28;19913;-67
2022/04/20 00:07:33;;;;;;;;;;;6.90;99.90;;;;;;5053525;28;19920;-68
2022/04/20 00:09:59;;;;;;;;;;;6.90;99.90;;;;;;5053484;28;19908;-68
2022/04/20 00:12:25;;;;;;;;;;;6.80;99.90;;;;;;5053207;28;20382;-66
2022/04/20 00:14:51;;;;;;;;;;;6.70;99.90;;;;;;5053067;28;19911;-68
2022/04/20 00:17:17;;;;;;;;;;;6.70;99.90;;;;;;5053437;28;19916;-68
2022/04/20 00:19:42;;;;;;;;;;;6.70;99.90;;;;;;5056776;28;19905;-66
2022/04/20 00:22:08;;;;;;;;;;;6.70;99.90;;;;;;5057560;28;19911;-67
2022/04/20 00:24:33;;;;;;;;;;;6.70;99.90;;;;;;5056733;28;19995;-67
2022/04/20 00:26:59;;;;;;;;;;;6.60;99.90;;;;;;5057539;28;19901;-68
2022/04/20 00:29:24;;;;;;;;;;;6.60;99.90;;;;;;5057101;28;19911;-68
2022/04/20 00:31:50;;;;;;;;;;;6.60;99.90;;;;;;5057078;28;19999;-68
2022/04/20 00:34:15;;;;;;;;;;;6.60;99.90;;;;;;5056726;28;19911;-68
2022/04/20 00:36:41;;;;;;;;;;;6.60;99.90;;;;;;5056751;28;19905;-68
2022/04/20 00:39:06;;;;;;;;;;;6.50;99.90;;;;;;5057288;28;20359;-68
2022/04/20 00:41:32;;;;;;;;;;;6.50;99.90;;;;;;5056846;28;20343;-67
2022/04/20 00:43:58;;;;;;;;;;;6.40;99.90;;;;;;5057181;28;19950;-67
2022/04/20 00:46:25;;;;;;;;;;;6.40;99.90;;;;;;5056588;28;19908;-67
2022/04/20 00:48:50;;;;;;;;;;;6.40;99.90;;;;;;5056540;28;19905;-69
2022/04/20 00:51:16;;;;;;;;;;;6.30;99.90;;;;;;5056724;28;19911;-70
2022/04/20 00:53:41;;;;;;;;;;;6.20;99.90;;;;;;5056446;28;20342;-69
2022/04/20 00:56:07;;;;;;;;;;;6.20;99.90;;;;;;5056613;28;19927;-70
2022/04/20 00:58:34;;;;;;;;;;;6.30;99.90;;;;;;5056289;28;19905;-68
2022/04/20 01:01:00;;;;;;;;;;;6.20;99.90;;;;;;5056222;28;19947;-67
2022/04/20 01:03:25;;;;;;;;;;;6.20;99.90;;;;;;5056210;28;19904;-67
2022/04/20 01:05:51;;;;;;;;;;;6.10;99.90;;;;;;5056146;28;19911;-68
2022/04/20 01:08:16;;;;;;;;;;;6.10;99.90;;;;;;5056427;28;19915;-68
2022/04/20 01:10:42;;;;;;;;;;;6.00;99.90;;;;;;5056053;28;19911;-66
2022/04/20 01:13:08;;;;;;;;;;;6.00;99.90;;;;;;5056007;28;19912;-66
2022/04/20 01:15:34;;;;;;;;;;;6.00;99.90;;;;;;5055875;28;20367;-68
2022/04/20 01:18:08;;;;;;;;;;;6.00;99.90;;;;;;5038046;28;20256;-67
2022/04/20 01:20:34;;;;;;;;;;;6.00;99.90;;;;;;5056412;28;20317;-68
2022/04/20 01:22:59;;;;;;;;;;;5.90;99.90;;;;;;5056114;28;19912;-67
2022/04/20 01:25:25;;;;;;;;;;;5.90;99.90;;;;;;5055575;28;19917;-67
2022/04/20 01:27:51;;;;;;;;;;;5.80;99.90;;;;;;5056017;28;20285;-68
2022/04/20 01:30:16;;;;;;;;;;;5.70;99.90;;;;;;5054735;28;19963;-68
2022/04/20 01:32:42;;;;;;;;;;;5.60;99.90;;;;;;5055912;28;19952;-68
2022/04/20 01:35:08;;;;;;;;;;;5.60;99.90;;;;;;5055613;28;19999;-68
2022/04/20 01:37:34;;;;;;;;;;;5.60;99.90;;;;;;5055879;28;19939;-69
2022/04/20 01:39:59;;;;;;;;;;;5.60;99.90;;;;;;5055799;28;19916;-69
2022/04/20 01:42:25;;;;;;;;;;;5.60;99.90;;;;;;5055726;28;19904;-69
2022/04/20 01:44:50;;;;;;;;;;;5.50;99.90;;;;;;5055477;28;19987;-70
2022/04/20 01:47:16;;;;;;;;;;;5.60;99.90;;;;;;5055381;28;20298;-69
2022/04/20 01:49:42;;;;;;;;;;;5.50;99.90;;;;;;5055355;28;19912;-70
2022/04/20 01:52:07;;;;;;;;;;;5.50;99.90;;;;;;5055352;28;19905;-70
2022/04/20 01:54:33;;;;;;;;;;;5.50;99.90;;;;;;5055265;28;20370;-71
2022/04/20 01:56:58;;;;;;;;;;;5.60;99.90;;;;;;5055508;28;19955;-70
2022/04/20 01:59:24;;;;;;;;;;;5.60;99.90;;;;;;5055169;28;19909;-70
2022/04/20 02:04:34;;;;;;;;;;;5.60;99.90;;;;;;5055155;28;19911;-69
2022/04/20 02:06:59;;;;;;;;;;;5.70;99.90;;;;;;5054984;28;19905;-69
2022/04/20 02:09:25;;;;;;;;;;;5.80;99.90;;;;;;5054999;28;19911;-70
2022/04/20 02:11:51;;;;;;;;;;;5.90;99.90;;;;;;5055247;28;20401;-70
2022/04/20 02:14:16;;;;;;;;;;;5.90;99.90;;;;;;5054809;28;20481;-70
2022/04/20 02:16:42;;;;;;;;;;;5.90;99.90;;;;;;5055459;28;19904;-70
2022/04/20 02:19:08;;;;;;;;;;;5.90;99.90;;;;;;5054819;28;19904;-69
2022/04/20 02:21:33;;;;;;;;;;;5.90;99.90;;;;;;5054955;28;19916;-68
2022/04/20 02:23:59;;;;;;;;;;;6.00;99.90;;;;;;5054709;28;19904;-68
2022/04/20 02:26:24;;;;;;;;;;;6.00;99.90;;;;;;5054285;28;20290;-68
2022/04/20 02:28:50;;;;;;;;;;;5.90;99.90;;;;;;5055154;28;19909;-67
2022/04/20 02:31:16;;;;;;;;;;;6.00;99.90;;;;;;5054565;28;19909;-67
2022/04/20 02:33:42;;;;;;;;;;;6.00;99.90;;;;;;5055089;28;19904;-66
2022/04/20 02:36:07;;;;;;;;;;;6.00;99.90;;;;;;5054454;28;19911;-68
2022/04/20 02:38:36;;;;;;;;;;;6.10;99.90;;;;;;5055008;28;19904;-68
2022/04/20 02:41:02;;;;;;;;;;;6.10;99.90;;;;;;5054183;28;19908;-67
2022/04/20 02:43:27;;;;;;;;;;;6.10;99.90;;;;;;5054339;28;20025;-68
2022/04/20 02:45:54;;;;;;;;;;;6.20;99.90;;;;;;5054564;28;19956;-67
2022/04/20 02:48:20;;;;;;;;;;;6.20;99.90;;;;;;5054231;28;19905;-68
2022/04/20 02:50:46;;;;;;;;;;;6.20;99.90;;;;;;5054192;28;19992;-68
2022/04/20 02:53:13;;;;;;;;;;;6.20;99.90;;;;;;5054172;28;19944;-67
2022/04/20 02:55:38;;;;;;;;;;;6.20;99.90;;;;;;5054408;28;19912;-68
2022/04/20 02:58:04;;;;;;;;;;;6.20;99.90;;;;;;5054374;28;19905;-68
2022/04/20 03:00:30;;;;;;;;;;;6.20;99.90;;;;;;5053972;28;20006;-68
2022/04/20 03:02:55;;;;;;;;;;;6.20;99.90;;;;;;5054036;28;19911;-68
2022/04/20 03:05:21;;;;;;;;;;;6.20;99.90;;;;;;5053993;28;20403;-67
2022/04/20 03:07:47;;;;;;;;;;;6.10;99.90;;;;;;5053929;28;19908;-68
2022/04/20 03:10:13;;;;;;;;;;;6.20;99.90;;;;;;5053892;28;19992;-68
2022/04/20 03:12:38;;;;;;;;;;;6.20;99.90;;;;;;5053869;28;19904;-68
2022/04/20 03:15:04;;;;;;;;;;;6.10;99.90;;;;;;5054013;28;20343;-68
2022/04/20 03:17:30;;;;;;;;;;;6.10;99.90;;;;;;5053710;28;19912;-68
2022/04/20 03:19:55;;;;;;;;;;;6.00;99.90;;;;;;5053645;28;20358;-68
2022/04/20 03:22:21;;;;;;;;;;;6.00;99.90;;;;;;5053687;28;19927;-68
2022/04/20 03:24:47;;;;;;;;;;;5.90;99.90;;;;;;5053500;28;19916;-67
2022/04/20 03:27:12;;;;;;;;;;;5.80;99.90;;;;;;5053973;28;19908;-67
2022/04/20 03:29:38;;;;;;;;;;;5.80;99.90;;;;;;5053599;28;19909;-68
2022/04/20 03:32:08;;;;;;;;;;;5.80;99.90;;;;;;5053858;28;19928;-70
2022/04/20 03:34:33;;;;;;;;;;;5.80;99.90;;;;;;5053545;28;19904;-69
2022/04/20 03:36:59;;;;;;;;;;;5.70;99.90;;;;;;5053502;28;19911;-69
2022/04/20 03:39:24;;;;;;;;;;;5.60;99.90;;;;;;5053790;28;19905;-69
2022/04/20 03:41:50;;;;;;;;;;;5.50;99.90;;;;;;5035565;28;19916;-70
2022/04/20 03:44:15;;;;;;;;;;;5.50;99.90;;;;;;5053744;28;20278;-69
2022/04/20 03:46:41;;;;;;;;;;;5.40;99.90;;;;;;5053421;28;19909;-69
2022/04/20 03:49:06;;;;;;;;;;;5.40;99.90;;;;;;5053381;28;19912;-69
2022/04/20 03:51:32;;;;;;;;;;;5.40;99.90;;;;;;5053635;28;19904;-68
2022/04/20 03:53:58;;;;;;;;;;;5.50;99.90;;;;;;5056067;28;19905;-67
2022/04/20 03:56:23;;;;;;;;;;;5.50;99.90;;;;;;5057460;28;20003;-67
2022/04/20 03:58:49;;;;;;;;;;;5.50;99.90;;;;;;5057480;28;20321;-68
2022/04/20 04:01:16;;;;;;;;;;;5.60;99.90;;;;;;5057356;28;20003;-65
2022/04/20 04:03:41;;;;;;;;;;;5.60;99.90;;;;;;5057648;28;19905;-68
2022/04/20 04:06:07;;;;;;;;;;;5.60;99.90;;;;;;5057293;28;19963;-68
2022/04/20 04:08:32;;;;;;;;;;;5.50;99.90;;;;;;5057793;28;20361;-68
2022/04/20 04:10:58;;;;;;;;;;;5.50;99.90;;;;;;5057517;28;19905;-68
2022/04/20 04:13:24;;;;;;;;;;;5.50;99.90;;;;;;5039310;28;19911;-67
2022/04/20 04:15:50;;;;;;;;;;;5.50;99.90;;;;;;5057204;28;19904;-67
2022/04/20 04:18:16;;;;;;;;;;;5.50;99.90;;;;;;5057394;28;19905;-69
2022/04/20 04:20:42;;;;;;;;;;;5.60;99.90;;;;;;5056982;28;20347;-67
2022/04/20 04:23:07;;;;;;;;;;;5.60;99.90;;;;;;5039009;28;19913;-67
2022/04/20 04:25:33;;;;;;;;;;;5.50;99.90;;;;;;5056760;28;19927;-68
2022/04/20 04:27:59;;;;;;;;;;;5.60;99.90;;;;;;5039023;28;19995;-67
2022/04/20 04:30:24;;;;;;;;;;;5.50;99.90;;;;;;5057451;28;19908;-68
2022/04/20 04:32:51;;;;;;;;;;;5.50;99.90;;;;;;5056857;28;20297;-68
2022/04/20 04:35:17;;;;;;;;;;;5.40;99.90;;;;;;5057091;28;19947;-67
2022/04/20 04:37:43;;;;;;;;;;;5.50;99.90;;;;;;5056752;28;19911;-67
2022/04/20 04:40:09;;;;;;;;;;;5.50;99.90;;;;;;5056605;28;19909;-68
2022/04/20 04:42:34;;;;;;;;;;;5.40;99.90;;;;;;5056654;28;19905;-68
2022/04/20 04:48:36;;;;;;;;;;;5.40;99.90;;;;;;5056570;28;20000;-68
2022/04/20 04:50:29;;;;;;;;;;;5.30;99.90;;;;;;5056509;28;19963;-70
2022/04/20 04:52:55;;;;;;;;;;;5.20;99.90;;;;;;5056417;28;19908;-70
2022/04/20 04:55:20;;;;;;;;;;;5.20;99.90;;;;;;5056362;28;19968;-69
2022/04/20 04:57:46;;;;;;;;;;;5.20;99.90;;;;;;5056623;28;19904;-68
2022/04/20 05:00:11;;;;;;;;;;;5.30;99.90;;;;;;5056218;28;19909;-68
2022/04/20 05:02:37;;;;;;;;;;;5.20;99.90;;;;;;5056806;28;19908;-68
2022/04/20 05:05:04;;;;;;;;;;;5.20;99.90;;;;;;5054797;28;19904;-68
2022/04/20 05:07:29;;;;;;;;;;;5.10;99.90;;;;;;5056127;28;19912;-67
2022/04/20 05:09:55;;;;;;;;;;;5.10;99.90;;;;;;5056169;28;19905;-68
2022/04/20 05:12:20;;;;;;;;;;;5.10;99.90;;;;;;5056381;28;19904;-68
2022/04/20 05:14:46;;;;;;;;;;;5.20;99.90;;;;;;5055969;28;19951;-68
2022/04/20 05:17:11;;;;;;;;;;;5.20;99.90;;;;;;5056585;28;19990;-69
2022/04/20 05:19:37;;;;;;;;;;;5.30;99.90;;;;;;5055934;28;19915;-69
2022/04/20 05:22:02;;;;;;;;;;;5.30;99.90;;;;;;5056073;28;20351;-68
2022/04/20 05:24:28;;;;;;;;;;;5.40;99.90;;;;;;5055665;28;19904;-69
2022/04/20 05:26:53;;;;;;;;;;;5.40;99.90;;;;;;5056085;28;19912;-67
2022/04/20 05:29:19;;;;;;;;;;;5.50;99.90;;;;;;5055757;28;19911;-68
2022/04/20 05:31:45;;;;;;;;;;;5.50;99.90;;;;;;5055972;28;19909;-67
2022/04/20 05:34:10;;;;;;;;;;;5.50;99.90;;;;;;5037792;28;19911;-68
2022/04/20 05:42:04;;;;;;;;;;;5.70;99.90;;;;;;5055234;28;19916;-67
2022/04/20 05:44:30;;;;;;;;;;;5.70;99.90;;;;;;5055505;28;19904;-67
2022/04/20 05:46:55;;;;;;;;;;;5.90;99.90;;;;;;5055745;28;19904;-69
2022/04/20 05:49:21;;;;;;;;;;;6.00;99.90;;;;;;5055644;28;19905;-68
2022/04/20 05:51:47;;;;;;;;;;;6.20;99.90;;;;;;5037533;28;19908;-67
2022/04/20 05:54:12;;;;;;;;;;;6.30;99.90;;;;;;5055609;28;19967;-67
2022/04/20 05:56:38;;;;;;;;;;;6.50;99.90;;;;;;5055268;28;19905;-68
2022/04/20 05:59:04;;;;;;;;;;;6.60;99.90;;;;;;5055286;28;19905;-68
2022/04/20 06:01:29;;;;;;;;;;;6.80;99.90;;;;;;5055140;28;20373;-68
2022/04/20 06:03:55;;;;;;;;;;;6.90;99.90;;;;;;5055455;28;19904;-68
2022/04/20 06:06:21;;;;;;;;;;;7.00;99.90;;;;;;5055126;28;19905;-67
2022/04/20 06:08:47;;;;;;;;;;;7.00;99.90;;;;;;5055014;28;20421;-67
2022/04/20 06:11:13;;;;;;;;;;;7.00;99.90;;;;;;5055258;28;19971;-69
2022/04/20 06:13:38;;;;;;;;;;;7.10;99.90;;;;;;5054884;28;20354;-68
2022/04/20 06:16:04;;;;;;;;;;;7.30;99.90;;;;;;5054389;28;20350;-67
2022/04/20 06:18:30;;;;;;;;;;;7.40;99.90;;;;;;5054840;28;19905;-68
2022/04/20 06:20:55;;;;;;;;;;;7.70;99.90;;;;;;5054970;28;19915;-67
2022/04/20 06:23:22;;;;;;;;;;;8.00;99.90;;;;;;5054750;28;19995;-68
2022/04/20 06:25:48;;;;;;;;;;;8.10;99.90;;;;;;5054523;28;20361;-67
2022/04/20 06:28:14;;;;;;;;;;;8.40;99.90;;;;;;5054687;28;19905;-68
2022/04/20 06:30:39;;;;;;;;;;;9.10;99.90;;;;;;5054636;28;19912;-69
2022/04/20 06:33:05;;;;;;;;;;;9.60;99.90;;;;;;5054540;28;19952;-69
2022/04/20 06:35:30;;;;;;;;;;;10.30;99.90;;;;;;5054765;28;19905;-69
2022/04/20 06:37:56;;;;;;;;;;;12.00;99.90;;;;;;5054457;28;19905;-69
2022/04/20 06:40:21;;;;;;;;;;;13.20;99.90;;;;;;5054596;28;19916;-68
2022/04/20 06:42:47;;;;;;;;;;;12.80;99.90;;;;;;5054393;28;20382;-69
2022/04/20 06:45:13;;;;;;;;;;;12.50;99.90;;;;;;5054631;28;19959;-68
2022/04/20 06:47:39;;;;;;;;;;;12.20;99.90;;;;;;5054585;28;19905;-68
2022/04/20 06:50:04;;;;;;;;;;;12.00;99.90;;;;;;5054502;28;19908;-68
2022/04/20 07:00:42;;;;;;;;;;;12.30;99.90;;;;;;5053768;28;20290;-66
2022/04/20 07:03:08;;;;;;;;;;;12.50;99.90;;;;;;5054600;28;19909;-67
2022/04/20 07:05:33;;;;;;;;;;;12.70;99.90;;;;;;5054236;28;19954;-69
2022/04/20 07:08:00;;;;;;;;;;;13.00;99.90;;;;;;5053909;28;19905;-68
2022/04/20 07:10:26;;;;;;;;;;;13.20;99.90;;;;;;5054152;28;20003;-67
2022/04/20 07:12:52;;;;;;;;;;;13.00;99.90;;;;;;5053780;28;19987;-68
2022/04/20 07:15:18;;;;;;;;;;;13.00;99.90;;;;;;5053897;28;20318;-68
2022/04/20 07:17:44;;;;;;;;;;;13.10;99.90;;;;;;5053742;28;19912;-69
2022/04/20 07:20:17;;;;;;;;;;;12.90;99.90;;;;;;5053624;28;19916;-68
2022/04/20 07:22:50;;;;;;;;;;;13.10;99.90;;;;;;5053996;28;19904;-68
2022/04/20 07:25:16;;;;;;;;;;;13.10;99.90;;;;;;5053506;28;19940;-68
2022/04/20 07:27:41;;;;;;;;;;;13.20;99.90;;;;;;5053418;28;20351;-68
2022/04/20 07:30:07;;;;;;;;;;;13.30;99.90;;;;;;5053617;28;19916;-69
2022/04/20 07:32:33;;;;;;;;;;;13.40;99.90;;;;;;5054152;28;19905;-69
2022/04/20 07:34:58;;;;;;;;;;;13.70;99.90;;;;;;5053557;28;20278;-68
2022/04/20 07:37:23;;;;;;;;;;;13.90;99.90;;;;;;5053539;28;19905;-69
2022/04/20 07:39:49;;;;;;;;;;;14.20;99.90;;;;;;5053530;28;19904;-68
2022/04/20 07:42:14;;;;;;;;;;;14.40;99.90;;;;;;5053480;28;20348;-68
2022/04/20 07:44:40;;;;;;;;;;;14.80;99.90;;;;;;5053461;28;19912;-69
2022/04/20 07:47:05;;;;;;;;;;;15.40;99.90;;;;;;5053448;28;19904;-68
2022/04/20 07:52:19;;;;;;;;;;;15.10;99.90;;;;;;5053454;28;19927;-68
2022/04/20 07:54:45;;;;;;;;;;;15.20;99.90;;;;;;5053405;28;19912;-68
2022/04/20 07:57:14;;;;;;;;;;;14.50;99.90;;;;;;5053402;28;19904;-68
2022/04/20 07:59:40;;;;;;;;;;;14.20;99.90;;;;;;5053346;28;19966;-69
2022/04/20 08:02:06;;;;;;;;;;;13.90;99.90;;;;;;5053255;28;19908;-68
2022/04/20 08:04:31;;;;;;;;;;;13.90;99.90;;;;;;5053319;28;19931;-69
2022/04/20 08:06:57;;;;;;;;;;;13.90;99.90;;;;;;5053269;28;19995;-69
2022/04/20 08:09:23;;;;;;;;;;;13.90;99.90;;;;;;5053242;28;19926;-68
2022/04/20 08:11:49;;;;;;;;;;;14.40;99.90;;;;;;5053486;28;19989;-68
2022/04/20 08:14:14;;;;;;;;;;;15.00;99.90;;;;;;5053163;28;19998;-69
2022/04/20 08:16:41;;;;;;;;;;;15.30;99.90;;;;;;5052949;28;19984;-67
2022/04/20 08:19:07;;;;;;;;;;;15.40;99.90;;;;;;5053365;28;20331;-69
2022/04/20 08:21:33;;;;;;;;;;;15.30;99.90;;;;;;5053366;28;19915;-68
2022/04/20 08:23:58;;;;;;;;;;;15.70;99.90;;;;;;5053078;28;20003;-68
2022/04/20 08:26:24;;;;;;;;;;;16.30;99.90;;;;;;5052650;28;20007;-68
2022/04/20 08:28:50;;;;;;;17.67;9.30;;;19.50;99.90;;;;;;5053150;28;19911;-68
2022/04/20 08:31:15;;;;;;;14.73;8.55;;;23.10;99.90;;;;;;5052573;28;20376;-69
2022/04/20 08:33:42;;;;;;;12.68;8.55;;;25.00;96.80;;;;;;5034899;28;20503;-69
2022/04/20 08:36:11;;;;;;;14.32;9.27;;;26.30;92.70;;;;;;5052561;28;20074;-68
2022/04/20 08:38:38;;;;;;;;;;;26.70;90.60;;;;;;5053164;28;20119;-69
2022/04/20 08:41:04;;;;;;;15.35;8.55;;;27.70;85.90;;;;;;5056222;28;19958;-69
2022/04/20 08:43:31;;;;;;;12.75;8.50;;;27.50;82.70;;;;;;5055931;28;20036;-69
2022/04/20 08:46:02;;;;;;;11.80;8.75;;;27.40;81.10;;;;;;5055610;28;20033;-69
2022/04/20 08:48:29;;;;;;;13.15;8.50;;;27.80;78.90;;;;;;5055785;28;20025;-69
2022/04/20 08:50:54;;;;;;;14.60;9.07;;;27.40;75.40;;;;;;5056345;28;20543;-69
2022/04/20 08:53:21;;;;;;;14.60;7.90;;;28.50;75.20;;;;;;5056032;28;20096;-69
2022/04/20 08:55:47;;;;;;;12.82;8.50;;;28.50;72.50;;;;;;5056281;28;20025;-69
2022/04/20 08:58:14;;;;;;;14.48;8.15;;;29.10;71.70;;;;;;5055940;28;20060;-70
2022/04/20 09:00:40;;;;;;;15.60;8.32;;;29.50;70.50;;;;;;5055831;28;20031;-70
2022/04/20 09:03:06;;;;;;;14.18;8.70;;;29.20;70.10;;;;;;5056137;28;20356;-69
2022/04/20 09:05:36;;;;;;;11.18;8.45;;;29.50;68.50;;;;;;5055751;28;20031;-69
2022/04/20 09:08:13;;;;;;;12.88;7.75;;;29.30;69.00;;;;;;5055723;28;20456;-69
2022/04/20 09:10:39;;;;;;;12.23;7.97;;;29.60;67.50;;;;;;5056300;28;20025;-69
2022/04/20 09:13:11;;;;;;;12.25;7.80;;;29.70;66.80;;;;;;5055613;28;20448;-69
2022/04/20 09:15:38;;;;;;;12.85;7.80;;;29.60;67.30;;;;;;5055503;28;20387;-69
2022/04/20 09:18:05;;;;;;;12.02;7.93;;;29.70;66.00;;;;;;5055822;28;20029;-69
2022/04/20 09:20:32;;;;;;;12.05;8.25;;;29.70;65.90;;;;;;5055419;28;20021;-69
2022/04/20 09:23:09;;;;;;;14.27;8.50;;;29.60;64.10;;;;;;5055467;28;20055;-69
2022/04/20 09:25:39;;;;;;;15.82;8.20;;;29.40;63.80;;;;;;5055525;28;20040;-68
2022/04/20 09:28:07;;;;;;;14.18;8.40;;;28.80;65.70;;;;;;5056009;28;20048;-69
2022/04/20 09:30:38;;;;;;;11.33;7.47;;;28.90;65.50;;;;;;5055324;28;20051;-69
2022/04/20 09:33:07;;;;;;;13.57;8.63;;;29.50;64.30;;;;;;5055306;28;20506;-69
2022/04/20 09:35:48;;;;;;;;;;;27.50;64.30;;;;;;5055647;28;20522;-69
2022/04/20 09:38:18;;;;;;;12.07;7.10;;;28.40;65.80;;;;;;5055726;28;19904;-69
2022/04/20 09:40:43;;;;;;;12.70;7.57;;;28.90;63.00;;;;;;5055293;28;20063;-69
2022/04/20 09:43:15;;;;;;;12.93;7.43;;;29.50;62.10;;;;;;5055065;28;20025;-69
2022/04/20 09:45:44;;;;;;;12.55;8.10;;;30.10;62.20;;;;;;5055365;28;20467;-69
2022/04/20 09:51:09;;;;;;;15.43;9.07;;;30.10;62.00;;;;;;5054422;28;20032;-69
2022/04/20 09:53:35;;;;;;;12.73;7.55;;;28.10;64.50;;;;;;5055176;28;20071;-69
2022/04/20 09:56:23;;;;;;;21.55;9.10;;;29.40;63.00;;;;;;5055120;28;20025;-69
2022/04/20 09:59:03;;;;;;;14.18;8.43;;;30.00;62.00;;;;;;5055154;28;20061;-68
2022/04/20 10:01:31;;;;;;;12.52;8.07;;;27.40;62.40;;;;;;5055015;28;20036;-69
2022/04/20 10:03:58;;;;;;;11.95;9.38;;;27.20;65.40;;;;;;5054727;28;20434;-68
2022/04/20 10:06:24;;;;;;;15.75;8.57;;;28.00;64.10;;;;;;5054674;28;20078;-69
2022/04/20 10:08:50;;;;;;;12.80;8.30;;;27.50;65.10;;;;;;5054634;28;20025;-69
2022/04/20 10:11:17;;;;;;;13.07;8.07;;;29.30;62.60;;;;;;5054568;28;20025;-69
2022/04/20 10:13:46;;;;;;;12.18;8.52;;;28.70;61.40;;;;;;5054548;28;20102;-68
2022/04/20 10:16:13;;;;;;;15.57;8.80;;;28.70;62.10;;;;;;5054421;28;20033;-68
2022/04/20 10:18:45;;;;;;;13.25;8.75;;;28.70;62.70;;;;;;5054675;28;20390;-69
2022/04/20 10:21:12;;;;;;;13.20;8.93;;;28.90;62.30;;;;;;5054310;28;20029;-69
2022/04/20 10:23:45;;;;;;;15.35;8.88;;;30.00;61.60;;;;;;5054321;28;20509;-69
2022/04/20 10:26:11;;;;;;;10.27;7.45;;;30.20;59.50;;;;;;5054127;28;20495;-69
2022/04/20 10:29:05;;;;;;;12.98;8.48;;;30.20;60.40;;;;;;5054488;28;20059;-69
2022/04/20 10:31:59;;;;;;;14.13;8.60;;;30.10;60.50;;;;;;5049842;28;20043;-69
2022/04/20 10:34:25;;;;;;;13.32;7.93;;;31.20;58.90;;;;;;5054754;28;20029;-70
2022/04/20 10:37:00;;;;;;;15.00;9.18;;;31.00;59.50;;;;;;5054060;28;20031;-69
2022/04/20 10:39:29;;;;;;;12.43;8.10;;;31.90;57.40;;;;;;5036199;28;20033;-69
2022/04/20 10:42:15;;;;;;;12.90;8.52;;;31.60;58.50;;;;;;5054156;28;20025;-69
2022/04/20 10:45:01;;;;;;;13.10;8.95;;;31.50;56.40;;;;;;5054458;28;20021;-69
2022/04/20 10:47:32;;;;;;;12.05;8.32;;;31.50;56.50;;;;;;5054092;28;20021;-69
2022/04/20 10:50:13;;;;;;;14.05;8.20;;;31.10;56.30;;;;;;5053705;28;20029;-69
2022/04/20 10:52:41;;;;;;;13.05;8.50;;;31.20;55.70;;;;;;5054023;28;20020;-69
2022/04/20 10:55:09;;;;;;;14.68;9.18;;;31.60;55.90;;;;;;5053721;28;20017;-69
2022/04/20 10:57:36;;;;;;;14.63;10.35;;;31.10;55.90;;;;;;5053640;28;20025;-69
2022/04/20 11:00:33;;;;;;;14.52;10.18;;;30.90;55.70;;;;;;5053912;28;20024;-68
2022/04/20 11:03:06;;;;;;;15.70;11.50;;;31.50;54.80;;;;;;5052347;28;20171;-69
2022/04/20 11:05:48;;;;;;;15.00;11.57;;;30.50;54.80;;;;;;5053823;28;20029;-68
2022/04/20 11:08:14;;;;;;;14.40;11.80;;;29.70;55.80;;;;;;5053549;28;20013;-70
2022/04/20 11:18:38;;;;;;;14.98;11.48;;;30.60;55.20;;;;;;5053719;28;20025;-68
2022/04/20 11:19:07;;;;;;;16.48;11.98;;;30.20;55.90;;;;;;5053364;28;20036;-70
2022/04/20 11:21:34;;;;;;;18.00;11.57;;;30.20;56.10;;;;;;5053215;28;20025;-69
2022/04/20 11:24:08;;;;;;;15.32;12.30;;;29.30;56.50;;;;;;5053822;28;20095;-69
2022/04/20 11:26:51;;;;;;;16.10;13.82;;;30.20;56.60;;;;;;5067838;28;20040;-68
2022/04/20 11:29:19;;;;;;;19.08;15.80;;;29.70;54.70;;;;;;5073863;28;20021;-67
2022/04/20 11:31:54;;;;;;;19.98;15.25;;;29.50;55.50;;;;;;5073244;28;20390;-69
2022/04/20 11:34:20;;;;;;;19.60;15.50;;;29.80;55.40;;;;;;5073094;28;20150;-71
2022/04/20 11:36:48;;;;;;;20.33;15.93;;;30.30;55.40;;;;;;5073455;28;20032;-70
2022/04/20 11:39:18;;;;;;;20.58;17.38;;;30.10;53.50;;;;;;5073195;28;20100;-69
2022/04/20 11:41:48;;;;;;;20.25;17.27;;;29.20;54.30;;;;;;5073244;28;20098;-73
2022/04/20 11:44:24;;;;;;;22.45;17.15;;;27.00;55.40;;;;;;5073467;28;20027;-71
2022/04/20 11:46:51;;;;;;;22.48;17.65;;;24.90;59.00;;;;;;5073109;28;20558;-72
2022/04/20 11:49:17;;;;;;;23.30;17.90;;;23.70;60.50;;;;;;5071923;28;20021;-72
2022/04/20 11:51:45;;;;;;;25.20;18.15;;;23.10;62.30;;;;;;5073131;28;20024;-71
2022/04/20 11:54:17;;;;;;;23.50;18.00;;;23.10;63.80;;;;;;5073655;28;20021;-73
2022/04/20 11:56:43;;;;;;;27.67;17.55;;;22.50;63.70;;;;;;5073078;28;20163;-71
2022/04/20 11:59:09;;;;;;;;;;;22.20;67.30;;;;;;5073384;28;20063;-70
2022/04/20 12:01:37;;;;;;;27.88;17.88;;;22.10;64.70;;;;;;5072883;28;19958;-72
2022/04/20 12:04:16;;;;;;;26.90;18.15;;;21.90;65.70;;;;;;5071656;28;20051;-70
2022/04/20 12:06:45;;;;;;;;;;;21.90;66.60;;;;;;5073837;28;20020;-71
2022/04/20 12:09:10;;;;;;;25.13;18.63;;;21.70;66.50;;;;;;5073725;28;20021;-69
2022/04/20 12:11:36;;;;;;;24.40;17.38;;;21.90;67.20;;;;;;5072918;28;20063;-73
2022/04/20 12:14:03;;;;;;;25.50;18.80;;;21.80;68.60;;;;;;5074169;28;20517;-73
2022/04/20 12:16:34;;;;;;;24.90;17.73;;;21.50;68.40;;;;;;5077240;28;20440;-71
2022/04/20 12:19:00;;;;;;;26.87;19.67;;;21.40;67.60;;;;;;5076631;28;20447;-73
2022/04/20 12:21:42;;;;;;;27.13;18.13;;;21.50;69.40;;;;;;5076564;28;20112;-74
2022/04/20 12:24:29;;;;;;;26.25;18.05;;;21.60;70.40;;;;;;5077221;28;20071;-73
2022/04/20 12:26:57;;;;;;;27.95;18.25;;;21.60;68.80;;;;;;5075585;28;20127;-74
2022/04/20 12:29:27;;;;;;;27.05;18.13;;;21.30;67.60;;;;;;5077039;28;20116;-73
2022/04/20 12:31:55;;;;;;;26.52;17.58;;;21.00;67.40;;;;;;5076844;28;20021;-75
2022/04/20 12:34:23;;;;;;;30.02;19.52;;;21.10;68.50;;;;;;5076818;28;20470;-73
2022/04/20 12:37:14;;;;;;;28.95;19.55;;;20.80;69.50;;;;;;5076406;28;20035;-71
2022/04/20 12:39:44;;;;;;;25.10;18.08;;;20.80;69.20;;;;;;5077079;28;20032;-76
2022/04/20 12:42:10;;;;;;;;;;;21.00;71.70;;;;;;5077012;28;20024;-72
2022/04/20 12:44:37;;;;;;;28.80;19.17;;;20.80;69.70;;;;;;5076865;28;19905;-73
2022/04/20 12:47:11;;;;;;;29.90;19.45;;;20.60;71.60;;;;;;5074865;28;20111;-74
2022/04/20 12:49:40;;;;;;;28.65;19.13;;;20.80;72.20;;;;;;5074902;28;20059;-74
2022/04/20 12:52:10;;;;;;;24.43;17.37;;;20.80;73.70;;;;;;5076114;28;20112;-72
2022/04/20 12:54:36;;;;;;;27.23;19.33;;;20.70;73.40;;;;;;5076357;28;20020;-73
2022/04/20 13:02:58;;;;;;;;;;;20.80;74.00;;;;;;5076625;28;20066;-71
2022/04/20 13:05:24;;;;;;;;;;;20.70;74.10;;;;;;5076240;28;19963;-74
2022/04/20 13:07:50;;;;;;;;;;;20.80;75.10;;;;;;5076259;28;19971;-73
2022/04/20 13:10:16;;;;;;;;;;;20.90;74.30;;;;;;5074911;28;20392;-73
2022/04/20 13:12:48;;;;;;;;;;;20.80;75.70;;;;;;5076424;28;19965;-70
2022/04/20 13:15:14;;;;;;;;;;;20.90;75.20;;;;;;5076062;28;19908;-70
2022/04/20 13:17:39;;;;;;;;;;;20.90;77.00;;;;;;5076327;28;19909;-70
2022/04/20 13:20:05;;;;;;;;;;;20.90;75.40;;;;;;5076028;28;19954;-69
2022/04/20 13:22:30;;;;;;;;;;;20.90;76.60;;;;;;5076532;28;19991;-72
2022/04/20 13:27:55;;;;;;;;;;;20.60;77.90;;;;;;5075427;28;19916;-74
2022/04/20 13:30:29;;;;;;;27.15;20.20;;;21.00;77.80;;;;;;5075997;28;19908;-73
2022/04/20 13:32:55;;;;;;;;;;;21.40;77.00;;;;;;5076171;28;20097;-72
2022/04/20 13:35:24;;;;;;;27.55;20.02;;;21.20;77.20;;;;;;5074165;28;20373;-71
2022/04/20 13:37:52;;;;;;;30.20;20.10;;;21.00;77.50;;;;;;5074844;28;20478;-73
2022/04/20 13:40:18;;;;;;;30.08;21.65;;;21.00;78.20;;;;;;5073662;28;20094;-71
2022/04/20 13:42:43;;;;;;;26.77;20.58;;;21.00;77.30;;;;;;5072895;28;20017;-72
2022/04/20 13:45:09;;;;;;;29.25;20.80;;;21.20;78.90;;;;;;5075032;28;20056;-73
2022/04/20 13:47:35;;;;;;;25.17;20.70;;;21.30;78.60;;;;;;5073756;28;20025;-74
2022/04/20 13:50:01;;;;;;;28.27;20.63;;;21.10;79.50;;;;;;5075041;28;20024;-71
2022/04/20 13:52:28;;;;;;;56.05;25.65;;;21.40;79.50;;;;;;5075225;28;20024;-73
2022/04/20 13:54:55;;;;;;;27.83;22.08;;;21.30;80.20;;;;;;5074869;28;20466;-73
2022/04/20 13:57:21;;;;;;;29.45;21.35;;;21.20;79.40;;;;;;5074823;28;20021;-70
2022/04/20 13:59:48;;;;;;;29.88;21.58;;;21.10;80.10;;;;;;5075060;28;20025;-70
2022/04/20 14:02:14;;;;;;;29.95;22.33;;;20.90;82.20;;;;;;5074632;28;20032;-70
2022/04/20 14:04:40;;;;;;;28.85;22.20;;;21.00;81.00;;;;;;5074672;28;20024;-73
2022/04/20 14:07:06;;;;;;;32.20;22.35;;;21.00;81.20;;;;;;5074979;28;20028;-72
2022/04/20 14:09:35;;;;;;;29.95;22.13;;;20.80;80.30;;;;;;5074885;28;20383;-71
2022/04/20 14:12:02;;;;;;;29.23;22.35;;;20.70;81.50;;;;;;5074796;28;20028;-72
2022/04/20 14:14:28;;;;;;;29.75;22.75;;;20.80;83.40;;;;;;5074491;28;20028;-73
2022/04/20 14:16:56;;;;;;;30.40;23.40;;;20.80;83.30;;;;;;5074534;28;20154;-73
2022/04/20 14:19:23;;;;;;;28.33;23.13;;;21.10;82.00;;;;;;5074414;28;20429;-73
2022/04/20 14:21:50;;;;;;;28.70;22.98;;;21.10;82.50;;;;;;5074586;28;20017;-70